createdAt,value
2022-09-28T00:02:02.798Z,98479.97
2022-09-28T00:07:06.972Z,98474.56
2022-09-28T00:12:10.336Z,98468.34
2022-09-28T00:17:13.997Z,98472.84
2022-09-28T00:22:18.230Z,98458.50
2022-09-28T00:27:21.048Z,98453.84
2022-09-28T00:32:25.050Z,98441.47
2022-09-28T00:37:29.691Z,98430.53
2022-09-28T00:42:32.493Z,98424.56
2022-09-28T00:47:43.340Z,98404.59
2022-09-28T00:52:53.195Z,98406.28
2022-09-28T00:57:59.292Z,98399.38
2022-09-28T01:03:02.259Z,98385.59
2022-09-28T01:08:07.986Z,98378.97
2022-09-28T01:13:11.661Z,98375.16
2022-09-28T01:18:23.300Z,98375.53
2022-09-28T01:23:49.679Z,98363.34
2022-09-28T01:29:00.313Z,98359.38
2022-09-28T01:34:11.365Z,98354.03
2022-09-28T01:39:18.861Z,98349.00
2022-09-28T01:44:25.414Z,98332.84
2022-09-28T01:49:35.635Z,98331.69
2022-09-28T01:54:44.392Z,98328.84
2022-09-28T01:59:55.763Z,98324.81
2022-09-28T02:05:04.246Z,98322.28
2022-09-28T02:10:12.089Z,98312.31
2022-09-28T02:15:22.073Z,98308.94
2022-09-28T02:20:25.368Z,98322.34
2022-09-28T02:25:33.515Z,98307.00
2022-09-28T02:30:39.957Z,98320.47
2022-09-28T02:35:43.454Z,98315.28
2022-09-28T02:40:55.156Z,98323.81
2022-09-28T02:46:04.886Z,98320.53
2022-09-28T02:51:23.945Z,98324.31
2022-09-28T02:56:47.165Z,98337.72
2022-09-28T03:01:58.149Z,98327.53
2022-09-28T03:07:07.029Z,98335.88
2022-09-28T03:12:12.924Z,98336.47
2022-09-28T03:17:17.630Z,98331.63
2022-09-28T03:22:20.789Z,98337.78
2022-09-28T03:27:23.677Z,98334.03
2022-09-28T03:32:27.966Z,98335.97
2022-09-28T03:37:30.809Z,98334.50
2022-09-28T03:42:36.824Z,98329.72
2022-09-28T03:47:46.385Z,98331.41
2022-09-28T03:52:49.237Z,98330.13
2022-09-28T03:57:55.929Z,98327.47
2022-09-28T04:03:00.212Z,98325.69
2022-09-28T04:08:04.260Z,98321.72
2022-09-28T04:13:07.247Z,98324.06
2022-09-28T04:18:12.440Z,98321.84
2022-09-28T04:23:31.836Z,98323.56
2022-09-28T04:29:07.243Z,98324.22
2022-09-28T04:34:14.662Z,98321.91
2022-09-28T04:39:19.178Z,98312.47
2022-09-28T04:44:25.520Z,98321.25
2022-09-28T04:49:37.073Z,98333.81
2022-09-28T04:54:49.879Z,98326.03
2022-09-28T04:59:52.753Z,98337.41
2022-09-28T05:04:58.846Z,98337.78
2022-09-28T05:10:21.864Z,98335.97
2022-09-28T05:15:24.699Z,98332.84
2022-09-28T05:20:29.177Z,98341.59
2022-09-28T05:25:32.351Z,98353.66
2022-09-28T05:30:44.946Z,98350.91
2022-09-28T05:36:10.329Z,98348.88
2022-09-28T05:41:13.373Z,98352.22
2022-09-28T05:46:16.347Z,98352.97
2022-09-28T05:51:20.631Z,98355.34
2022-09-28T05:56:23.959Z,98354.44
2022-09-28T06:01:28.358Z,98360.72
2022-09-28T06:06:35.707Z,98368.09
2022-09-28T06:11:38.629Z,98363.25
2022-09-28T06:17:02.040Z,98364.16
2022-09-28T06:22:06.326Z,98373.19
2022-09-28T06:27:14.311Z,98377.13
2022-09-28T06:32:18.268Z,98376.78
2022-09-28T06:37:26.018Z,98377.84
2022-09-28T06:42:29.413Z,98377.91
2022-09-28T06:47:57.593Z,98401.78
2022-09-28T06:53:12.289Z,98398.44
2022-09-28T06:58:28.188Z,98403.53
2022-09-28T07:03:33.344Z,98396.50
2022-09-28T07:09:29.628Z,98404.03
2022-09-28T07:14:57.268Z,98403.63
2022-09-28T07:20:14.965Z,98407.53
2022-09-28T07:25:24.272Z,98418.56
2022-09-28T07:30:45.382Z,98416.22
2022-09-28T07:35:53.451Z,98417.19
2022-09-28T07:41:16.881Z,98427.50
2022-09-28T07:46:23.642Z,98428.34
2022-09-28T07:51:33.136Z,98428.59
2022-09-28T07:56:55.741Z,98437.88
2022-09-28T08:02:22.178Z,98435.84
2022-09-28T08:07:25.677Z,98455.25
2022-09-28T08:12:40.713Z,98450.69
2022-09-28T08:18:00.512Z,98455.69
2022-09-28T08:23:05.787Z,98459.41
2022-09-28T08:28:10.584Z,98461.59
2022-09-28T08:33:21.824Z,98465.19
2022-09-28T08:38:24.706Z,98469.59
2022-09-28T08:44:13.733Z,98478.31
2022-09-28T08:49:50.294Z,98483.44
2022-09-28T08:55:12.850Z,98487.00
2022-09-28T09:00:22.757Z,98493.81
2022-09-28T09:05:40.542Z,98496.31
2022-09-28T09:10:52.108Z,98501.53
2022-09-28T09:16:10.082Z,98505.72
2022-09-28T09:21:42.509Z,98503.41
2022-09-28T09:26:47.029Z,98505.34
2022-09-28T09:32:07.256Z,98515.41
2022-09-28T09:37:27.512Z,98520.66
2022-09-28T09:43:29.506Z,98521.41
2022-09-28T09:48:56.587Z,98519.53
2022-09-28T09:54:03.422Z,98534.13
2022-09-28T09:59:11.368Z,98542.78
2022-09-28T10:04:39.964Z,98544.69
2022-09-28T10:09:56.806Z,98553.94
2022-09-28T10:15:24.822Z,98549.75
2022-09-28T10:20:45.926Z,98544.09
2022-09-28T10:26:03.363Z,98550.44
2022-09-28T10:31:43.544Z,98545.78
2022-09-28T10:36:58.533Z,98560.50
2022-09-28T10:42:08.730Z,98559.09
2022-09-28T10:47:18.014Z,98568.94
2022-09-28T10:52:36.240Z,98561.59
2022-09-28T10:57:40.745Z,98577.13
2022-09-28T11:02:45.415Z,98581.19
2022-09-28T11:08:01.304Z,98584.41
2022-09-28T11:13:12.064Z,98586.94
2022-09-28T11:18:21.179Z,98582.50
2022-09-28T11:23:31.744Z,98583.91
2022-09-28T11:28:51.353Z,98585.84
2022-09-28T11:34:16.292Z,98578.81
2022-09-28T11:39:45.993Z,98592.44
2022-09-28T11:44:50.323Z,98602.50
2022-09-28T11:50:01.131Z,98599.69
2022-09-28T11:55:15.709Z,98601.47
2022-09-28T12:00:22.239Z,98593.47
2022-09-28T12:05:34.763Z,98598.22
2022-09-28T12:10:48.051Z,98599.28
2022-09-28T12:16:23.296Z,98601.41
2022-09-28T12:21:42.042Z,98602.84
2022-09-28T12:26:49.899Z,98598.41
2022-09-28T12:32:03.544Z,98600.41
2022-09-28T12:37:23.194Z,98602.81
2022-09-28T12:42:56.164Z,98607.97
2022-09-28T12:48:11.390Z,98608.03
2022-09-28T12:53:41.445Z,98614.41
2022-09-28T12:59:00.924Z,98616.72
2022-09-28T13:04:20.969Z,98617.91
2022-09-28T13:09:25.706Z,98624.28
2022-09-28T13:15:01.668Z,98625.66
2022-09-28T13:20:17.514Z,98628.81
2022-09-28T13:25:22.828Z,98628.00
2022-09-28T13:30:27.411Z,98620.22
2022-09-28T13:35:30.985Z,98624.47
2022-09-28T13:41:09.254Z,98618.63
2022-09-28T13:46:25.237Z,98622.59
2022-09-28T13:51:42.840Z,98630.03
2022-09-28T13:56:51.789Z,98620.97
2022-09-28T14:02:06.938Z,98623.69
2022-09-28T14:07:16.431Z,98633.28
2022-09-28T14:12:49.717Z,98625.94
2022-09-28T14:18:02.244Z,98634.72
2022-09-28T14:23:35.607Z,98641.75
2022-09-28T14:28:49.989Z,98636.72
2022-09-28T14:33:59.399Z,98644.06
2022-09-28T14:39:27.989Z,98636.78
2022-09-28T14:45:09.447Z,98641.28
2022-09-28T14:50:26.871Z,98658.88
2022-09-28T14:55:33.888Z,98648.91
2022-09-28T15:00:37.253Z,98653.78
2022-09-28T15:05:47.115Z,98652.78
2022-09-28T15:10:51.672Z,98640.53
2022-09-28T15:15:59.413Z,98642.56
2022-09-28T15:21:04.521Z,98636.97
2022-09-28T15:26:09.336Z,98639.56
2022-09-28T15:31:18.898Z,98653.72
2022-09-28T15:36:26.254Z,98654.00
2022-09-28T15:41:29.938Z,98654.50
2022-09-28T15:46:35.073Z,98660.03
2022-09-28T15:51:53.304Z,98663.94
2022-09-28T15:56:59.679Z,98664.75
2022-09-28T16:02:10.853Z,98671.13
2022-09-28T16:07:32.185Z,98672.34
2022-09-28T16:12:46.133Z,98675.28
2022-09-28T16:17:55.005Z,98677.66
2022-09-28T16:23:05.657Z,98676.72
2022-09-28T16:28:25.385Z,98674.53
2022-09-28T16:33:29.814Z,98689.16
2022-09-28T16:38:34.052Z,98685.97
2022-09-28T16:43:36.872Z,98693.97
2022-09-28T16:48:48.749Z,98699.13
2022-09-28T16:54:10.521Z,98697.69
2022-09-28T16:59:14.045Z,98704.47
2022-09-28T17:04:16.970Z,98707.31
2022-09-28T17:09:21.501Z,98710.03
2022-09-28T17:14:24.831Z,98724.47
2022-09-28T17:19:28.917Z,98727.91
2022-09-28T17:24:33.021Z,98730.66
2022-09-28T17:29:35.855Z,98721.34
2022-09-28T17:34:38.669Z,98735.66
2022-09-28T17:39:42.856Z,98741.06
2022-09-28T17:44:46.555Z,98741.69
2022-09-28T17:49:50.632Z,98746.13
2022-09-28T17:54:55.041Z,98754.75
2022-09-28T17:59:58.588Z,98757.72
2022-09-28T18:05:02.564Z,98758.84
2022-09-28T18:10:08.082Z,98753.94
2022-09-28T18:15:11.932Z,98756.09
2022-09-28T18:20:15.548Z,98757.53
2022-09-28T18:25:19.814Z,98756.44
2022-09-28T18:30:22.588Z,98771.09
2022-09-28T18:35:25.512Z,98771.53
2022-09-28T18:40:29.889Z,98776.59
2022-09-28T18:45:33.113Z,98791.28
2022-09-28T18:50:36.125Z,98782.59
2022-09-28T18:55:40.824Z,98785.28
2022-09-28T19:00:43.890Z,98792.91
2022-09-28T19:05:46.869Z,98799.69
2022-09-28T19:10:51.217Z,98802.22
2022-09-28T19:15:54.157Z,98804.31
2022-09-28T19:20:57.154Z,98801.63
2022-09-28T19:26:04.628Z,98799.38
2022-09-28T19:31:09.100Z,98808.94
2022-09-28T19:36:14.242Z,98797.72
2022-09-28T19:41:43.062Z,98806.44
2022-09-28T19:46:46.748Z,98806.47
2022-09-28T19:52:11.663Z,98818.72
2022-09-28T19:57:15.844Z,98819.00
2022-09-28T20:02:19.365Z,98820.53
2022-09-28T20:07:22.193Z,98830.69
2022-09-28T20:12:26.452Z,98828.56
2022-09-28T20:17:29.246Z,98832.50
2022-09-28T20:22:32.055Z,98838.69
2022-09-28T20:27:36.201Z,98836.88
2022-09-28T20:32:39.340Z,98839.97
2022-09-28T20:37:43.144Z,98849.22
2022-09-28T20:42:47.336Z,98845.03
2022-09-28T20:47:51.306Z,98841.78
2022-09-28T20:52:54.205Z,98840.09
2022-09-28T20:58:03.862Z,98840.09
2022-09-28T21:03:06.757Z,98836.16
2022-09-28T21:08:09.540Z,98839.09
2022-09-28T21:13:13.539Z,98842.75
2022-09-28T21:18:16.390Z,98844.13
2022-09-28T21:23:24.599Z,98843.00
2022-09-28T21:28:29.190Z,98852.41
2022-09-28T21:33:32.315Z,98854.47
2022-09-28T21:51:15.409Z,98867.25
2022-09-28T21:56:18.540Z,98876.81
2022-09-28T22:01:23.478Z,98872.59
2022-09-28T22:06:29.023Z,98879.88
2022-09-28T22:11:32.370Z,98884.50
2022-09-28T22:16:35.283Z,98884.06
2022-09-28T22:21:39.763Z,98890.50
2022-09-28T22:26:42.732Z,98888.94
2022-09-28T22:31:45.459Z,98886.53
2022-09-28T22:36:49.419Z,98893.00
2022-09-28T22:41:52.995Z,98893.00
2022-09-28T22:46:55.797Z,98900.03
2022-09-28T22:52:00.053Z,98910.72
2022-09-28T22:57:02.815Z,98911.88
2022-09-28T23:02:05.547Z,98899.69
2022-09-28T23:07:09.668Z,98904.19
2022-09-28T23:12:12.426Z,98905.16
2022-09-28T23:17:15.200Z,98908.50
2022-09-28T23:22:19.366Z,98907.06
2022-09-28T23:27:22.112Z,98897.13
2022-09-28T23:32:28.523Z,98905.28
2022-09-28T23:37:35.455Z,98902.78
2022-09-28T23:42:38.237Z,98895.84
2022-09-28T23:47:40.956Z,98900.53
2022-09-28T23:52:45.157Z,98920.91
2022-09-28T23:57:47.897Z,98913.19
